CPX663 Details

Departure: Orlando International Airport (KMCO)
Arrival: Miami International Airport (KMIA) at N/A
Route: MLB ANNEY4
Notes:


Current Weather Information
KMCO 250353Z 02005KT 10SM FEW020 FEW250 26/23 A2998 RMK AO2 SLP150 T02610233 $
KMIA 250353Z 21004KT 10SM FEW030 FEW250 28/25 A2995 RMK AO2 SLP140 T02830250